sensor_id;sensor_type;location;lat;lon;timestamp;pressure;altitude;pressure_sealevel;temperature;humidity
81299;BME280;70766;53.170;18.160;2024-03-06T00:00:29;101607.02;;;3.87;100.00
81299;BME280;70766;53.170;18.160;2024-03-06T00:03:17;101607.52;;;3.88;100.00
81299;BME280;70766;53.170;18.160;2024-03-06T00:05:45;101613.81;;;3.91;100.00
81299;BME280;70766;53.170;18.160;2024-03-06T00:08:15;101614.86;;;3.91;100.00
81299;BME280;70766;53.170;18.160;2024-03-06T00:10:43;101620.84;;;3.91;100.00
81299;BME280;70766;53.170;18.160;2024-03-06T00:13:13;101621.55;;;3.90;100.00
81299;BME280;70766;53.170;18.160;2024-03-06T00:15:41;101625.33;;;3.91;100.00
81299;BME280;70766;53.170;18.160;2024-03-06T00:18:09;101625.48;;;3.91;100.00
81299;BME280;70766;53.170;18.160;2024-03-06T00:20:38;101625.60;;;3.92;100.00
81299;BME280;70766;53.170;18.160;2024-03-06T00:23:08;101630.35;;;3.94;100.00
81299;BME280;70766;53.170;18.160;2024-03-06T00:25:37;101629.78;;;3.94;100.00
81299;BME280;70766;53.170;18.160;2024-03-06T00:28:06;101628.94;;;3.93;100.00
81299;BME280;70766;53.170;18.160;2024-03-06T00:30:34;101627.59;;;3.93;100.00
81299;BME280;70766;53.170;18.160;2024-03-06T00:33:02;101629.31;;;3.93;100.00
81299;BME280;70766;53.170;18.160;2024-03-06T00:35:30;101627.62;;;3.93;100.00
81299;BME280;70766;53.170;18.160;2024-03-06T00:38:00;101634.27;;;3.93;100.00
81299;BME280;70766;53.170;18.160;2024-03-06T00:40:31;101639.12;;;3.93;100.00
81299;BME280;70766;53.170;18.160;2024-03-06T00:43:00;101638.38;;;3.93;100.00
81299;BME280;70766;53.170;18.160;2024-03-06T00:45:28;101638.35;;;3.95;100.00
81299;BME280;70766;53.170;18.160;2024-03-06T00:47:56;101642.80;;;3.93;100.00
81299;BME280;70766;53.170;18.160;2024-03-06T00:50:24;101642.46;;;3.93;100.00
81299;BME280;70766;53.170;18.160;2024-03-06T00:52:53;101644.86;;;3.93;100.00
81299;BME280;70766;53.170;18.160;2024-03-06T00:55:21;101646.02;;;3.94;100.00
81299;BME280;70766;53.170;18.160;2024-03-06T00:57:49;101649.17;;;3.93;100.00
81299;BME280;70766;53.170;18.160;2024-03-06T01:00:18;101650.80;;;3.94;100.00
81299;BME280;70766;53.170;18.160;2024-03-06T01:02:47;101649.91;;;3.96;100.00
81299;BME280;70766;53.170;18.160;2024-03-06T01:05:16;101652.61;;;3.97;100.00
81299;BME280;70766;53.170;18.160;2024-03-06T01:07:44;101658.07;;;3.99;100.00
81299;BME280;70766;53.170;18.160;2024-03-06T01:10:12;101655.81;;;4.01;100.00
81299;BME280;70766;53.170;18.160;2024-03-06T01:12:40;101661.48;;;4.02;100.00
81299;BME280;70766;53.170;18.160;2024-03-06T01:15:09;101662.31;;;4.02;100.00
81299;BME280;70766;53.170;18.160;2024-03-06T01:17:37;101668.87;;;4.04;100.00
81299;BME280;70766;53.170;18.160;2024-03-06T01:20:07;101671.56;;;4.04;100.00
81299;BME280;70766;53.170;18.160;2024-03-06T01:22:35;101672.13;;;4.04;100.00
81299;BME280;70766;53.170;18.160;2024-03-06T01:25:04;101672.30;;;4.05;100.00
81299;BME280;70766;53.170;18.160;2024-03-06T01:27:33;101669.04;;;4.06;100.00
81299;BME280;70766;53.170;18.160;2024-03-06T01:30:01;101671.14;;;4.08;100.00
81299;BME280;70766;53.170;18.160;2024-03-06T01:32:29;101671.58;;;4.09;100.00
81299;BME280;70766;53.170;18.160;2024-03-06T01:34:58;101675.36;;;4.10;100.00
81299;BME280;70766;53.170;18.160;2024-03-06T01:37:26;101673.50;;;4.11;100.00
81299;BME280;70766;53.170;18.160;2024-03-06T01:39:54;101677.06;;;4.12;100.00
81299;BME280;70766;53.170;18.160;2024-03-06T01:42:23;101677.87;;;4.13;100.00
81299;BME280;70766;53.170;18.160;2024-03-06T01:44:52;101678.46;;;4.12;100.00
81299;BME280;70766;53.170;18.160;2024-03-06T01:47:20;101677.73;;;4.12;100.00
81299;BME280;70766;53.170;18.160;2024-03-06T01:49:49;101680.55;;;4.12;100.00
81299;BME280;70766;53.170;18.160;2024-03-06T01:52:19;101684.44;;;4.11;100.00
81299;BME280;70766;53.170;18.160;2024-03-06T01:54:49;101685.48;;;4.11;100.00
81299;BME280;70766;53.170;18.160;2024-03-06T01:57:19;101682.07;;;4.10;100.00
81299;BME280;70766;53.170;18.160;2024-03-06T01:59:48;101681.13;;;4.05;100.00
81299;BME280;70766;53.170;18.160;2024-03-06T02:02:17;101681.63;;;4.06;100.00
81299;BME280;70766;53.170;18.160;2024-03-06T02:04:46;101685.08;;;4.07;100.00
81299;BME280;70766;53.170;18.160;2024-03-06T02:07:16;101682.27;;;4.06;100.00
81299;BME280;70766;53.170;18.160;2024-03-06T02:09:45;101675.73;;;4.03;100.00
81299;BME280;70766;53.170;18.160;2024-03-06T02:12:13;101674.56;;;3.99;100.00
81299;BME280;70766;53.170;18.160;2024-03-06T02:14:41;101677.34;;;3.96;100.00
81299;BME280;70766;53.170;18.160;2024-03-06T02:17:09;101678.05;;;3.96;100.00
81299;BME280;70766;53.170;18.160;2024-03-06T02:19:44;101684.70;;;3.97;100.00
81299;BME280;70766;53.170;18.160;2024-03-06T02:22:12;101685.84;;;3.98;100.00
81299;BME280;70766;53.170;18.160;2024-03-06T02:24:47;101685.58;;;3.99;100.00
81299;BME280;70766;53.170;18.160;2024-03-06T02:27:16;101683.86;;;3.98;100.00
81299;BME280;70766;53.170;18.160;2024-03-06T02:29:45;101684.40;;;3.99;100.00
81299;BME280;70766;53.170;18.160;2024-03-06T02:32:13;101681.63;;;3.99;100.00
81299;BME280;70766;53.170;18.160;2024-03-06T02:34:46;101680.16;;;3.98;100.00
81299;BME280;70766;53.170;18.160;2024-03-06T02:37:14;101680.07;;;3.99;100.00
81299;BME280;70766;53.170;18.160;2024-03-06T02:39:42;101683.69;;;4.01;100.00
81299;BME280;70766;53.170;18.160;2024-03-06T02:42:11;101678.14;;;3.99;100.00
81299;BME280;70766;53.170;18.160;2024-03-06T02:44:39;101682.83;;;4.01;100.00
81299;BME280;70766;53.170;18.160;2024-03-06T02:47:08;101680.88;;;4.01;100.00
81299;BME280;70766;53.170;18.160;2024-03-06T02:49:36;101683.63;;;4.00;100.00
81299;BME280;70766;53.170;18.160;2024-03-06T02:52:05;101687.20;;;4.03;100.00
81299;BME280;70766;53.170;18.160;2024-03-06T02:54:33;101685.94;;;4.04;100.00
81299;BME280;70766;53.170;18.160;2024-03-06T02:57:01;101688.07;;;4.05;100.00
81299;BME280;70766;53.170;18.160;2024-03-06T02:59:30;101690.29;;;4.06;100.00
81299;BME280;70766;53.170;18.160;2024-03-06T03:01:58;101687.48;;;4.07;100.00
81299;BME280;70766;53.170;18.160;2024-03-06T03:04:26;101689.94;;;4.09;100.00
81299;BME280;70766;53.170;18.160;2024-03-06T03:06:54;101690.65;;;4.11;100.00
81299;BME280;70766;53.170;18.160;2024-03-06T03:09:22;101692.38;;;4.13;100.00
81299;BME280;70766;53.170;18.160;2024-03-06T03:11:51;101691.09;;;4.12;100.00
81299;BME280;70766;53.170;18.160;2024-03-06T03:14:19;101695.36;;;4.12;100.00
81299;BME280;70766;53.170;18.160;2024-03-06T03:16:47;101695.61;;;4.14;100.00
81299;BME280;70766;53.170;18.160;2024-03-06T03:19:16;101696.23;;;4.13;100.00
81299;BME280;70766;53.170;18.160;2024-03-06T03:21:44;101693.98;;;4.14;100.00
81299;BME280;70766;53.170;18.160;2024-03-06T03:24:13;101696.38;;;4.15;100.00
81299;BME280;70766;53.170;18.160;2024-03-06T03:26:41;101698.60;;;4.16;100.00
81299;BME280;70766;53.170;18.160;2024-03-06T03:29:10;101701.55;;;4.18;100.00
81299;BME280;70766;53.170;18.160;2024-03-06T03:31:38;101701.82;;;4.17;100.00
81299;BME280;70766;53.170;18.160;2024-03-06T03:34:07;101700.89;;;4.18;100.00
81299;BME280;70766;53.170;18.160;2024-03-06T03:36:41;101697.00;;;4.18;100.00
81299;BME280;70766;53.170;18.160;2024-03-06T03:39:11;101698.67;;;4.17;100.00
81299;BME280;70766;53.170;18.160;2024-03-06T03:41:48;101694.52;;;4.16;100.00
81299;BME280;70766;53.170;18.160;2024-03-06T03:44:17;101697.14;;;4.16;100.00
81299;BME280;70766;53.170;18.160;2024-03-06T03:46:48;101702.52;;;4.16;100.00
81299;BME280;70766;53.170;18.160;2024-03-06T03:49:17;101700.12;;;4.15;100.00
81299;BME280;70766;53.170;18.160;2024-03-06T03:51:45;101700.42;;;4.14;100.00
81299;BME280;70766;53.170;18.160;2024-03-06T03:54:14;101701.17;;;4.13;100.00
81299;BME280;70766;53.170;18.160;2024-03-06T03:56:42;101704.36;;;4.13;100.00
81299;BME280;70766;53.170;18.160;2024-03-06T03:59:10;101708.65;;;4.15;100.00
81299;BME280;70766;53.170;18.160;2024-03-06T04:01:38;101708.73;;;4.16;100.00
81299;BME280;70766;53.170;18.160;2024-03-06T04:04:08;101707.01;;;4.17;100.00
81299;BME280;70766;53.170;18.160;2024-03-06T04:06:36;101709.70;;;4.17;100.00
81299;BME280;70766;53.170;18.160;2024-03-06T04:09:04;101714.31;;;4.16;100.00
81299;BME280;70766;53.170;18.160;2024-03-06T04:11:33;101716.18;;;4.17;100.00
81299;BME280;70766;53.170;18.160;2024-03-06T04:14:05;101712.36;;;4.18;100.00
81299;BME280;70766;53.170;18.160;2024-03-06T04:16:34;101715.55;;;4.18;100.00
81299;BME280;70766;53.170;18.160;2024-03-06T04:19:03;101716.89;;;4.19;100.00
81299;BME280;70766;53.170;18.160;2024-03-06T04:21:31;101712.30;;;4.19;100.00
81299;BME280;70766;53.170;18.160;2024-03-06T04:23:59;101709.88;;;4.20;100.00
81299;BME280;70766;53.170;18.160;2024-03-06T04:26:28;101710.01;;;4.22;100.00
81299;BME280;70766;53.170;18.160;2024-03-06T04:28:56;101707.51;;;4.24;100.00
81299;BME280;70766;53.170;18.160;2024-03-06T04:31:24;101700.81;;;4.25;100.00
81299;BME280;70766;53.170;18.160;2024-03-06T04:33:53;101700.44;;;4.25;100.00
81299;BME280;70766;53.170;18.160;2024-03-06T04:36:21;101703.95;;;4.26;100.00
81299;BME280;70766;53.170;18.160;2024-03-06T04:38:49;101699.66;;;4.26;100.00
81299;BME280;70766;53.170;18.160;2024-03-06T04:41:20;101703.69;;;4.26;100.00
81299;BME280;70766;53.170;18.160;2024-03-06T04:43:49;101702.16;;;4.27;100.00
81299;BME280;70766;53.170;18.160;2024-03-06T04:46:19;101705.24;;;4.28;100.00
81299;BME280;70766;53.170;18.160;2024-03-06T04:48:47;101708.95;;;4.30;100.00
81299;BME280;70766;53.170;18.160;2024-03-06T04:51:16;101708.35;;;4.31;100.00
81299;BME280;70766;53.170;18.160;2024-03-06T04:53:48;101709.59;;;4.32;100.00
81299;BME280;70766;53.170;18.160;2024-03-06T04:56:16;101711.82;;;4.33;100.00
81299;BME280;70766;53.170;18.160;2024-03-06T04:58:47;101712.35;;;4.35;100.00
81299;BME280;70766;53.170;18.160;2024-03-06T05:01:16;101717.91;;;4.37;100.00
81299;BME280;70766;53.170;18.160;2024-03-06T05:03:45;101718.05;;;4.40;100.00
81299;BME280;70766;53.170;18.160;2024-03-06T05:06:30;101720.15;;;4.41;100.00
81299;BME280;70766;53.170;18.160;2024-03-06T05:09:16;101725.96;;;4.43;100.00
81299;BME280;70766;53.170;18.160;2024-03-06T05:12:03;101718.75;;;4.44;100.00
81299;BME280;70766;53.170;18.160;2024-03-06T05:14:50;101725.45;;;4.47;100.00
81299;BME280;70766;53.170;18.160;2024-03-06T05:17:36;101727.65;;;4.50;100.00
81299;BME280;70766;53.170;18.160;2024-03-06T05:20:22;101728.96;;;4.57;100.00
81299;BME280;70766;53.170;18.160;2024-03-06T05:23:07;101737.90;;;4.58;100.00
81299;BME280;70766;53.170;18.160;2024-03-06T05:25:53;101741.43;;;4.60;100.00
81299;BME280;70766;53.170;18.160;2024-03-06T05:28:38;101741.80;;;4.61;100.00
81299;BME280;70766;53.170;18.160;2024-03-06T05:31:24;101745.16;;;4.61;100.00
81299;BME280;70766;53.170;18.160;2024-03-06T05:34:10;101748.91;;;4.63;100.00
81299;BME280;70766;53.170;18.160;2024-03-06T05:36:56;101747.20;;;4.64;100.00
81299;BME280;70766;53.170;18.160;2024-03-06T05:39:42;101752.70;;;4.62;100.00
81299;BME280;70766;53.170;18.160;2024-03-06T05:42:29;101754.69;;;4.62;100.00
81299;BME280;70766;53.170;18.160;2024-03-06T05:45:15;101759.08;;;4.62;100.00
81299;BME280;70766;53.170;18.160;2024-03-06T05:48:01;101765.59;;;4.61;100.00
81299;BME280;70766;53.170;18.160;2024-03-06T05:50:49;101768.36;;;4.63;100.00
81299;BME280;70766;53.170;18.160;2024-03-06T05:53:36;101770.05;;;4.64;100.00
81299;BME280;70766;53.170;18.160;2024-03-06T05:56:23;101772.13;;;4.64;100.00
81299;BME280;70766;53.170;18.160;2024-03-06T05:59:09;101775.15;;;4.66;100.00
81299;BME280;70766;53.170;18.160;2024-03-06T06:01:37;101775.35;;;4.69;100.00
81299;BME280;70766;53.170;18.160;2024-03-06T06:04:06;101780.32;;;4.71;100.00
81299;BME280;70766;53.170;18.160;2024-03-06T06:06:35;101778.48;;;4.70;100.00
81299;BME280;70766;53.170;18.160;2024-03-06T06:09:04;101779.48;;;4.72;100.00
81299;BME280;70766;53.170;18.160;2024-03-06T06:11:33;101777.94;;;4.75;100.00
81299;BME280;70766;53.170;18.160;2024-03-06T06:14:01;101779.42;;;4.74;100.00
81299;BME280;70766;53.170;18.160;2024-03-06T06:16:37;101779.99;;;4.77;100.00
81299;BME280;70766;53.170;18.160;2024-03-06T06:19:06;101787.60;;;4.77;100.00
81299;BME280;70766;53.170;18.160;2024-03-06T06:21:34;101790.70;;;4.78;100.00
81299;BME280;70766;53.170;18.160;2024-03-06T06:24:04;101790.05;;;4.77;100.00
81299;BME280;70766;53.170;18.160;2024-03-06T06:26:33;101793.98;;;4.80;100.00
81299;BME280;70766;53.170;18.160;2024-03-06T06:29:01;101800.88;;;4.84;100.00
81299;BME280;70766;53.170;18.160;2024-03-06T06:31:30;101801.90;;;4.82;100.00
81299;BME280;70766;53.170;18.160;2024-03-06T06:34:00;101806.98;;;4.86;100.00
81299;BME280;70766;53.170;18.160;2024-03-06T06:36:28;101805.60;;;4.88;100.00
81299;BME280;70766;53.170;18.160;2024-03-06T06:38:57;101808.45;;;4.88;100.00
81299;BME280;70766;53.170;18.160;2024-03-06T06:41:29;101808.05;;;4.83;100.00
81299;BME280;70766;53.170;18.160;2024-03-06T06:43:58;101810.54;;;4.84;100.00
81299;BME280;70766;53.170;18.160;2024-03-06T06:46:26;101808.19;;;4.88;100.00
81299;BME280;70766;53.170;18.160;2024-03-06T06:48:55;101808.55;;;4.88;100.00
81299;BME280;70766;53.170;18.160;2024-03-06T06:51:23;101812.50;;;4.88;100.00
81299;BME280;70766;53.170;18.160;2024-03-06T06:53:51;101811.61;;;4.88;100.00
81299;BME280;70766;53.170;18.160;2024-03-06T06:56:19;101812.91;;;4.86;100.00
81299;BME280;70766;53.170;18.160;2024-03-06T06:58:52;101811.73;;;4.87;100.00
81299;BME280;70766;53.170;18.160;2024-03-06T07:01:20;101809.92;;;4.87;100.00
81299;BME280;70766;53.170;18.160;2024-03-06T07:03:49;101814.64;;;4.88;100.00
81299;BME280;70766;53.170;18.160;2024-03-06T07:06:17;101817.04;;;4.90;100.00
81299;BME280;70766;53.170;18.160;2024-03-06T07:08:46;101817.25;;;4.90;100.00
81299;BME280;70766;53.170;18.160;2024-03-06T07:11:16;101818.58;;;4.96;100.00
81299;BME280;70766;53.170;18.160;2024-03-06T07:13:46;101820.73;;;4.92;100.00
81299;BME280;70766;53.170;18.160;2024-03-06T07:16:14;101825.61;;;4.88;100.00
81299;BME280;70766;53.170;18.160;2024-03-06T07:18:42;101825.39;;;4.90;100.00
81299;BME280;70766;53.170;18.160;2024-03-06T07:21:11;101827.92;;;4.91;100.00
81299;BME280;70766;53.170;18.160;2024-03-06T07:23:39;101832.34;;;4.91;100.00
81299;BME280;70766;53.170;18.160;2024-03-06T07:26:08;101832.84;;;4.92;100.00
81299;BME280;70766;53.170;18.160;2024-03-06T07:28:36;101830.62;;;4.96;100.00
81299;BME280;70766;53.170;18.160;2024-03-06T07:31:05;101834.63;;;4.96;100.00
81299;BME280;70766;53.170;18.160;2024-03-06T07:33:34;101833.02;;;4.97;100.00
81299;BME280;70766;53.170;18.160;2024-03-06T07:36:06;101835.91;;;4.96;100.00
81299;BME280;70766;53.170;18.160;2024-03-06T07:38:34;101841.38;;;5.00;100.00
81299;BME280;70766;53.170;18.160;2024-03-06T07:41:03;101843.41;;;5.01;100.00
81299;BME280;70766;53.170;18.160;2024-03-06T07:43:31;101847.61;;;5.01;100.00
81299;BME280;70766;53.170;18.160;2024-03-06T07:45:59;101851.75;;;4.99;100.00
81299;BME280;70766;53.170;18.160;2024-03-06T07:48:28;101851.48;;;4.98;100.00
81299;BME280;70766;53.170;18.160;2024-03-06T07:50:56;101853.73;;;4.99;100.00
81299;BME280;70766;53.170;18.160;2024-03-06T07:53:24;101855.05;;;5.01;100.00
81299;BME280;70766;53.170;18.160;2024-03-06T07:55:52;101860.02;;;5.01;100.00
81299;BME280;70766;53.170;18.160;2024-03-06T07:58:19;101870.17;;;5.02;100.00
81299;BME280;70766;53.170;18.160;2024-03-06T08:00:48;101868.19;;;5.03;100.00
81299;BME280;70766;53.170;18.160;2024-03-06T08:03:15;101870.45;;;5.03;100.00
81299;BME280;70766;53.170;18.160;2024-03-06T08:05:43;101869.75;;;5.03;100.00
81299;BME280;70766;53.170;18.160;2024-03-06T08:08:10;101871.61;;;5.01;100.00
81299;BME280;70766;53.170;18.160;2024-03-06T08:10:38;101877.22;;;4.99;100.00
81299;BME280;70766;53.170;18.160;2024-03-06T08:13:05;101879.26;;;5.00;100.00
81299;BME280;70766;53.170;18.160;2024-03-06T08:15:32;101881.45;;;5.03;100.00
81299;BME280;70766;53.170;18.160;2024-03-06T08:17:59;101882.86;;;5.05;100.00
81299;BME280;70766;53.170;18.160;2024-03-06T08:20:27;101883.82;;;5.05;100.00
81299;BME280;70766;53.170;18.160;2024-03-06T08:22:55;101889.11;;;5.06;100.00
81299;BME280;70766;53.170;18.160;2024-03-06T08:25:22;101888.30;;;5.07;100.00
81299;BME280;70766;53.170;18.160;2024-03-06T08:27:50;101885.13;;;5.10;100.00
81299;BME280;70766;53.170;18.160;2024-03-06T08:30:17;101887.61;;;5.13;100.00
81299;BME280;70766;53.170;18.160;2024-03-06T08:32:44;101890.70;;;5.13;100.00
81299;BME280;70766;53.170;18.160;2024-03-06T08:35:12;101891.55;;;5.15;100.00
81299;BME280;70766;53.170;18.160;2024-03-06T08:37:46;101894.91;;;5.18;100.00
81299;BME280;70766;53.170;18.160;2024-03-06T08:40:13;101894.30;;;5.19;100.00
81299;BME280;70766;53.170;18.160;2024-03-06T08:42:45;101896.58;;;5.21;100.00
81299;BME280;70766;53.170;18.160;2024-03-06T08:45:14;101898.73;;;5.24;100.00
81299;BME280;70766;53.170;18.160;2024-03-06T08:47:43;101899.02;;;5.23;100.00
81299;BME280;70766;53.170;18.160;2024-03-06T08:50:12;101901.42;;;5.28;100.00
81299;BME280;70766;53.170;18.160;2024-03-06T08:52:40;101900.38;;;5.32;100.00
81299;BME280;70766;53.170;18.160;2024-03-06T08:55:10;101899.34;;;5.36;100.00
81299;BME280;70766;53.170;18.160;2024-03-06T08:57:38;101896.13;;;5.41;100.00
81299;BME280;70766;53.170;18.160;2024-03-06T09:00:07;101893.11;;;5.54;100.00
81299;BME280;70766;53.170;18.160;2024-03-06T09:02:39;101896.16;;;5.62;100.00
81299;BME280;70766;53.170;18.160;2024-03-06T09:05:09;101891.33;;;5.78;100.00
81299;BME280;70766;53.170;18.160;2024-03-06T09:07:39;101892.38;;;5.92;100.00
81299;BME280;70766;53.170;18.160;2024-03-06T09:10:11;101894.04;;;6.09;100.00
81299;BME280;70766;53.170;18.160;2024-03-06T09:12:39;101893.92;;;6.28;100.00
81299;BME280;70766;53.170;18.160;2024-03-06T09:15:08;101894.17;;;6.44;100.00
81299;BME280;70766;53.170;18.160;2024-03-06T09:17:36;101894.76;;;6.50;100.00
81299;BME280;70766;53.170;18.160;2024-03-06T09:20:05;101898.34;;;6.58;100.00
81299;BME280;70766;53.170;18.160;2024-03-06T09:22:41;101899.98;;;6.79;100.00
81299;BME280;70766;53.170;18.160;2024-03-06T09:25:10;101898.54;;;6.87;100.00
81299;BME280;70766;53.170;18.160;2024-03-06T09:27:42;101900.23;;;6.94;100.00
81299;BME280;70766;53.170;18.160;2024-03-06T09:30:09;101897.40;;;6.95;100.00
81299;BME280;70766;53.170;18.160;2024-03-06T09:32:37;101901.39;;;6.90;100.00
81299;BME280;70766;53.170;18.160;2024-03-06T09:35:06;101898.31;;;6.95;100.00
81299;BME280;70766;53.170;18.160;2024-03-06T09:37:33;101903.61;;;7.03;100.00
81299;BME280;70766;53.170;18.160;2024-03-06T09:40:01;101904.60;;;6.98;100.00
81299;BME280;70766;53.170;18.160;2024-03-06T09:42:29;101902.36;;;7.00;100.00
81299;BME280;70766;53.170;18.160;2024-03-06T09:44:57;101903.73;;;6.90;100.00
81299;BME280;70766;53.170;18.160;2024-03-06T09:47:27;101902.89;;;6.88;100.00
81299;BME280;70766;53.170;18.160;2024-03-06T09:49:59;101904.71;;;6.81;100.00
81299;BME280;70766;53.170;18.160;2024-03-06T09:52:26;101904.86;;;6.92;100.00
81299;BME280;70766;53.170;18.160;2024-03-06T09:54:57;101907.62;;;7.08;100.00
81299;BME280;70766;53.170;18.160;2024-03-06T09:57:24;101912.23;;;7.16;100.00
81299;BME280;70766;53.170;18.160;2024-03-06T09:59:52;101918.47;;;7.16;100.00
81299;BME280;70766;53.170;18.160;2024-03-06T10:02:38;101917.70;;;7.19;100.00
81299;BME280;70766;53.170;18.160;2024-03-06T10:05:20;101920.20;;;7.23;100.00
81299;BME280;70766;53.170;18.160;2024-03-06T10:07:50;101921.27;;;7.24;100.00
81299;BME280;70766;53.170;18.160;2024-03-06T10:10:19;101921.01;;;7.22;100.00
81299;BME280;70766;53.170;18.160;2024-03-06T10:12:47;101923.98;;;7.13;100.00
81299;BME280;70766;53.170;18.160;2024-03-06T10:15:15;101928.68;;;7.08;100.00
81299;BME280;70766;53.170;18.160;2024-03-06T10:17:42;101927.79;;;6.99;100.00
81299;BME280;70766;53.170;18.160;2024-03-06T10:20:23;101929.01;;;6.96;100.00
81299;BME280;70766;53.170;18.160;2024-03-06T10:22:53;101934.38;;;7.03;100.00
81299;BME280;70766;53.170;18.160;2024-03-06T10:25:25;101932.38;;;7.00;100.00
81299;BME280;70766;53.170;18.160;2024-03-06T10:28:09;101936.10;;;6.98;100.00
81299;BME280;70766;53.170;18.160;2024-03-06T10:30:38;101934.67;;;7.02;100.00
81299;BME280;70766;53.170;18.160;2024-03-06T10:33:12;101937.05;;;7.08;100.00
81299;BME280;70766;53.170;18.160;2024-03-06T10:35:41;101936.98;;;7.04;100.00
81299;BME280;70766;53.170;18.160;2024-03-06T10:38:09;101933.58;;;6.95;100.00
81299;BME280;70766;53.170;18.160;2024-03-06T10:40:39;101935.27;;;6.91;100.00
81299;BME280;70766;53.170;18.160;2024-03-06T10:43:08;101929.52;;;6.82;100.00
81299;BME280;70766;53.170;18.160;2024-03-06T10:45:49;101938.89;;;6.79;100.00
81299;BME280;70766;53.170;18.160;2024-03-06T10:48:17;101935.95;;;6.74;100.00
81299;BME280;70766;53.170;18.160;2024-03-06T10:50:48;101934.41;;;6.84;100.00
81299;BME280;70766;53.170;18.160;2024-03-06T10:53:17;101939.23;;;6.89;100.00
81299;BME280;70766;53.170;18.160;2024-03-06T10:55:50;101940.88;;;6.87;100.00
81299;BME280;70766;53.170;18.160;2024-03-06T10:58:18;101940.83;;;6.89;100.00
81299;BME280;70766;53.170;18.160;2024-03-06T11:00:47;101943.33;;;6.79;100.00
81299;BME280;70766;53.170;18.160;2024-03-06T11:03:15;101945.27;;;6.81;100.00
81299;BME280;70766;53.170;18.160;2024-03-06T11:05:43;101946.50;;;6.91;100.00
81299;BME280;70766;53.170;18.160;2024-03-06T11:08:15;101945.10;;;7.00;100.00
81299;BME280;70766;53.170;18.160;2024-03-06T11:10:44;101947.55;;;6.97;100.00
81299;BME280;70766;53.170;18.160;2024-03-06T11:13:22;101945.39;;;7.02;100.00
81299;BME280;70766;53.170;18.160;2024-03-06T11:15:53;101946.33;;;6.94;100.00
81299;BME280;70766;53.170;18.160;2024-03-06T11:23:31;101955.84;;;7.22;100.00
81299;BME280;70766;53.170;18.160;2024-03-06T11:26:02;101956.70;;;7.38;100.00
81299;BME280;70766;53.170;18.160;2024-03-06T11:28:35;101957.86;;;7.47;100.00
81299;BME280;70766;53.170;18.160;2024-03-06T11:31:06;101953.84;;;7.43;100.00
81299;BME280;70766;53.170;18.160;2024-03-06T11:33:42;101957.20;;;7.58;100.00
81299;BME280;70766;53.170;18.160;2024-03-06T11:36:23;101957.02;;;7.48;100.00
81299;BME280;70766;53.170;18.160;2024-03-06T11:38:53;101956.16;;;7.64;100.00
81299;BME280;70766;53.170;18.160;2024-03-06T11:41:25;101960.40;;;7.80;100.00
81299;BME280;70766;53.170;18.160;2024-03-06T11:43:54;101961.80;;;8.00;100.00
81299;BME280;70766;53.170;18.160;2024-03-06T11:46:43;101959.48;;;8.05;100.00
81299;BME280;70766;53.170;18.160;2024-03-06T11:49:17;101960.54;;;7.92;100.00
81299;BME280;70766;53.170;18.160;2024-03-06T11:51:48;101961.31;;;8.00;100.00
81299;BME280;70766;53.170;18.160;2024-03-06T11:54:15;101961.33;;;8.00;100.00
81299;BME280;70766;53.170;18.160;2024-03-06T11:56:45;101961.44;;;8.07;100.00
81299;BME280;70766;53.170;18.160;2024-03-06T11:59:21;101964.74;;;7.70;100.00
81299;BME280;70766;53.170;18.160;2024-03-06T12:01:48;101964.45;;;7.80;100.00
81299;BME280;70766;53.170;18.160;2024-03-06T12:04:15;101963.73;;;7.86;100.00
81299;BME280;70766;53.170;18.160;2024-03-06T12:06:42;101965.41;;;7.75;100.00
81299;BME280;70766;53.170;18.160;2024-03-06T12:09:09;101965.59;;;7.68;100.00
81299;BME280;70766;53.170;18.160;2024-03-06T12:11:38;101970.50;;;7.54;100.00
81299;BME280;70766;53.170;18.160;2024-03-06T12:14:05;101970.54;;;7.43;100.00
81299;BME280;70766;53.170;18.160;2024-03-06T12:16:33;101973.79;;;7.40;100.00
81299;BME280;70766;53.170;18.160;2024-03-06T12:19:00;101972.34;;;7.37;100.00
81299;BME280;70766;53.170;18.160;2024-03-06T12:21:31;101975.21;;;7.43;100.00
81299;BME280;70766;53.170;18.160;2024-03-06T12:24:03;101971.48;;;7.49;100.00
81299;BME280;70766;53.170;18.160;2024-03-06T12:26:31;101971.73;;;7.53;100.00
81299;BME280;70766;53.170;18.160;2024-03-06T12:29:09;101969.65;;;7.59;100.00
81299;BME280;70766;53.170;18.160;2024-03-06T12:31:41;101971.73;;;7.66;100.00
81299;BME280;70766;53.170;18.160;2024-03-06T12:34:13;101969.79;;;7.65;100.00
81299;BME280;70766;53.170;18.160;2024-03-06T12:36:41;101971.85;;;7.70;99.42
81299;BME280;70766;53.170;18.160;2024-03-06T12:39:08;101972.76;;;7.70;99.69
81299;BME280;70766;53.170;18.160;2024-03-06T12:41:42;101972.05;;;7.70;97.78
81299;BME280;70766;53.170;18.160;2024-03-06T12:44:09;101976.39;;;7.73;99.55
81299;BME280;70766;53.170;18.160;2024-03-06T12:46:36;101971.39;;;7.80;98.41
81299;BME280;70766;53.170;18.160;2024-03-06T12:49:04;101975.94;;;7.79;97.96
81299;BME280;70766;53.170;18.160;2024-03-06T12:51:31;101974.57;;;7.85;98.43
81299;BME280;70766;53.170;18.160;2024-03-06T12:54:00;101975.83;;;7.91;99.61
81299;BME280;70766;53.170;18.160;2024-03-06T12:56:28;101976.73;;;7.97;99.48
81299;BME280;70766;53.170;18.160;2024-03-06T12:58:55;101976.30;;;8.00;98.05
81299;BME280;70766;53.170;18.160;2024-03-06T13:01:22;101978.66;;;8.00;96.39